Pagina principale
METAR-TAF:

METAR-TAF

Aeroporti :

Aeroporto di Bucarest-Băneasa - Aurel Vlaicu

Bucarest Băneasa, Romania

latitudine: 44-30N, longitudine: 026-08E, altezza: 90 m

Osservazione

Il bollettino è stato emesso 29 minuti fa, alle 00:30 UTC
Vento 6 kt da nord-est, variando fra nord/nord-est e est
Temperature 21°C
Umidità 64%
Pressione 1021 hPa
Visibilità 10 km o più
nessuna nube inferiore a 1500 m e nessun cumulonembo

METAR: LRBS 210030Z 05006KT 020V080 CAVOK 21/14 Q1021 NOSIG

Ora: 03:59 (00:59 UTC)

Previsione

Il bollettino è stato emesso 1 ora e 59 minuti fa, alle 23:00 UTC
Previsione valida dal 21 alle 00 UTC al 22 alle 00 UTC
Vento 8 kt da est/nord-est
Visibilità 10 km o più
nessuna nube inferiore a 1500 m e nessun cumulonembo

TAF: LRBS 202300Z 2100/2200 07008KT CAVOK

Osservazioni e previsioni meteorologiche di più di 4000 aeroporti (messaggi METAR e TAF).

Le stazioni disponibili sono rappresentate dai dischi gialli e rossi sulla carta.

Puntare il mouse per vedere il nome della stazione.

Clicca sopra per visualizzare le osservazioni e previsioni meteorologiche.

Per cambiare la mappa : fare clic sui pulsanti verdi con una croce nera per ingrandire, il pulsante verde con un trattino per diminuire, o sulla freccia verde per le mappe adiacenti.


METAR-TAF: